Time;durP1;ratioP1;P1;durP2;ratioP2;P2;SDS_P1;SDS_P2;PMS_P1;PMS_P2;Temp;Humidity;BMP_temperature;BMP_pressure;BME280_temperature;BME280_humidity;BME280_pressure;Samples;Min_cycle;Max_cycle;Signal;HPM_P1;HPM_P2
2022/08/07 00:02:41;;;;;;;2.28;1.95;;;;;;;19.19;78.82;102432.91;21039193;28;20052;-78
2022/08/07 00:12:45;;;;;;;2.70;2.00;;;;;;;18.95;78.46;102378.78;21055196;28;20059;-78
2022/08/07 00:23:04;;;;;;;2.00;1.80;;;;;;;19.17;78.48;102410.56;21055890;28;20109;-77
2022/08/07 00:33:09;;;;;;;2.10;1.70;;;;;;;19.17;78.18;102409.69;21053652;28;20048;-78
2022/08/07 00:43:14;;;;;;;1.70;1.60;;;;;;;19.16;78.45;102403.44;21053166;28;20048;-78
2022/08/07 00:53:36;;;;;;;3.40;2.05;;;;;;;18.98;78.22;102373.22;21048051;28;20050;-77
2022/08/07 01:03:51;;;;;;;1.63;1.53;;;;;;;19.15;78.37;102398.13;21018197;28;20116;-77
2022/08/07 01:13:59;;;;;;;2.33;1.98;;;;;;;19.13;77.97;102395.56;21050795;28;20412;-78
2022/08/07 01:24:01;;;;;;;2.40;1.88;;;;;;;19.12;77.67;102391.97;21032210;28;20051;-78
2022/08/07 01:34:04;;;;;;;1.95;1.75;;;;;;;19.03;77.71;102395.34;20989440;28;20041;-77
2022/08/07 01:44:10;;;;;;;2.42;2.03;;;;;;;18.81;77.81;102339.28;20945148;28;20044;-78
2022/08/07 01:54:18;;;;;;;2.47;2.17;;;;;;;18.90;77.40;102360.22;20951784;28;20056;-77
2022/08/07 02:04:53;;;;;;;2.07;1.80;;;;;;;19.02;77.19;102379.25;20879384;28;20106;-79
2022/08/07 02:15:01;;;;;;;1.92;1.73;;;;;;;19.09;77.56;102376.00;20879875;28;20721;-78
2022/08/07 02:25:13;;;;;;;2.30;1.75;;;;;;;19.09;77.42;102367.06;20862761;28;20072;-77
2022/08/07 02:35:28;;;;;;;1.80;1.67;;;;;;;18.94;77.09;102342.81;20877926;28;20139;-78
2022/08/07 02:45:53;;;;;;;2.00;1.80;;;;;;;18.89;76.97;102328.78;20908759;28;20876;-78
2022/08/07 02:56:02;;;;;;;1.80;1.65;;;;;;;19.08;77.19;102346.44;20915692;28;20044;-78
2022/08/07 03:06:14;;;;;;;1.65;1.55;;;;;;;18.89;77.17;102323.41;20936364;28;20064;-78
2022/08/07 03:16:26;;;;;;;1.98;1.75;;;;;;;18.87;76.95;102313.69;20941879;28;20048;-78
2022/08/07 03:26:31;;;;;;;2.80;1.80;;;;;;;19.05;76.88;102349.34;20941282;28;20087;-78
2022/08/07 03:36:38;;;;;;;1.80;1.60;;;;;;;19.00;76.87;102344.28;20940792;28;20049;-78
2022/08/07 03:46:40;;;;;;;2.58;1.88;;;;;;;19.04;76.75;102356.56;20940017;28;20120;-78
2022/08/07 03:57:04;;;;;;;1.88;1.77;;;;;;;19.03;76.80;102354.84;20943694;28;20052;-78
2022/08/07 04:07:08;;;;;;;2.65;1.63;;;;;;;19.04;76.47;102350.31;20940060;28;20128;-78
2022/08/07 04:17:19;;;;;;;2.88;2.30;;;;;;;19.02;76.71;102357.69;20955115;28;20044;-78
2022/08/07 04:27:29;;;;;;;2.47;1.80;;;;;;;19.01;76.56;102359.50;20957139;28;20122;-78
2022/08/07 04:37:39;;;;;;;2.00;1.80;;;;;;;19.01;76.29;102364.03;20938727;28;20045;-78
2022/08/07 04:48:09;;;;;;;2.08;1.83;;;;;;;19.01;76.36;102364.03;20966834;28;20826;-78
2022/08/07 04:58:36;;;;;;;2.67;2.30;;;;;;;18.90;76.22;102348.56;21007315;28;20127;-79
2022/08/07 05:09:04;;;;;;;2.90;2.00;;;;;;;19.00;75.83;102363.16;21036358;28;20690;-78
2022/08/07 05:19:15;;;;;;;2.20;2.00;;;;;;;18.99;75.95;102364.97;21034477;28;20117;-78
2022/08/07 05:29:26;;;;;;;2.13;1.92;;;;;;;18.98;75.88;102357.84;20941330;28;20142;-78
2022/08/07 05:39:48;;;;;;;2.60;1.88;;;;;;;18.90;75.90;102348.56;20921538;28;20055;-78
2022/08/07 05:50:10;;;;;;;2.30;2.10;;;;;;;18.99;75.76;102374.94;20940524;28;20542;-78
2022/08/07 06:00:13;;;;;;;2.50;2.30;;;;;;;18.67;76.26;102322.22;20926160;28;20501;-78
2022/08/07 06:10:24;;;;;;;2.40;2.00;;;;;;;18.98;75.95;102374.06;20915100;28;20118;-78
2022/08/07 06:20:26;;;;;;;2.00;1.80;;;;;;;18.98;76.06;102384.00;20905335;28;20057;-78
2022/08/07 06:30:48;;;;;;;3.20;2.50;;;;;;;18.98;76.30;102379.44;20928722;28;20051;-78
2022/08/07 06:40:55;;;;;;;3.08;2.63;;;;;;;18.98;76.41;102376.75;20951707;28;20036;-78
2022/08/07 06:51:03;;;;;;;2.50;2.30;;;;;;;18.97;76.54;102372.31;20917785;28;20040;-78
2022/08/07 07:01:11;;;;;;;3.00;2.65;;;;;;;18.98;76.73;102384.00;20934580;28;20056;-78
2022/08/07 07:11:15;;;;;;;3.25;2.47;;;;;;;18.89;76.58;102377.38;20877755;28;20067;-80
2022/08/07 07:21:40;;;;;;;4.07;2.92;;;;;;;19.01;76.68;102391.03;20903792;28;20132;-81
2022/08/07 07:32:05;;;;;;;3.70;2.80;;;;;;;19.05;76.79;102384.44;20909674;28;20064;-81
2022/08/07 07:42:09;;;;;;;3.25;2.78;;;;;;;19.10;76.66;102374.19;20933978;28;20493;-81
2022/08/07 07:52:20;;;;;;;3.60;2.80;;;;;;;19.10;76.30;102366.94;21006255;28;20036;-81
2022/08/07 08:02:26;;;;;;;3.90;3.35;;;;;;;19.04;76.39;102345.78;20928827;28;20505;-81
2022/08/07 08:12:36;;;;;;;3.05;2.72;;;;;;;19.12;76.24;102347.94;20885315;28;20083;-81
2022/08/07 08:33:17;;;;;;;4.47;2.80;;;;;;;19.21;75.88;102341.00;20923419;28;20040;-80
2022/08/07 08:43:36;;;;;;;3.72;3.15;;;;;;;19.24;75.52;102335.41;20948550;28;20051;-81
2022/08/07 08:54:15;;;;;;;3.33;2.60;;;;;;;19.26;75.50;102331.59;20963267;28;20123;-81
2022/08/07 09:04:34;;;;;;;3.13;2.83;;;;;;;19.27;75.38;102332.50;20942391;28;20048;-81
2022/08/07 09:14:39;;;;;;;3.80;2.50;;;;;;;19.11;75.20;102303.03;20947405;28;20413;-81
2022/08/07 09:25:19;;;;;;;3.30;2.90;;;;;;;19.27;75.08;102324.38;20945634;28;20128;-81
2022/08/07 09:35:46;;;;;;;3.10;2.50;;;;;;;19.26;74.96;102318.09;20926670;28;20071;-81
2022/08/07 09:46:21;;;;;;;2.90;2.50;;;;;;;19.25;74.74;102308.28;20942320;28;20509;-81
2022/08/07 09:57:07;;;;;;;2.85;2.40;;;;;;;19.24;74.50;102303.84;20957469;28;20053;-80
2022/08/07 10:07:40;;;;;;;2.78;2.38;;;;;;;19.17;74.60;102290.91;20939083;28;20139;-81
2022/08/07 10:18:30;;;;;;;2.13;1.90;;;;;;;19.24;74.45;102286.81;20892773;28;20402;-81
2022/08/07 10:28:34;;;;;;;2.58;2.25;;;;;;;19.22;74.48;102277.94;20892917;28;20052;-79
2022/08/07 10:38:58;;;;;;;2.30;2.05;;;;;;;19.22;74.39;102273.41;20883566;28;20508;-78
2022/08/07 10:49:09;;;;;;;2.40;2.20;;;;;;;19.22;74.61;102267.13;20891074;28;20048;-79
2022/08/07 10:59:50;;;;;;;2.50;1.85;;;;;;;19.22;74.30;102242.84;20895776;28;20448;-79
2022/08/07 11:09:57;;;;;;;2.17;1.90;;;;;;;18.93;74.49;102187.28;20882510;28;20053;-80
2022/08/07 11:20:23;;;;;;;2.53;1.88;;;;;;;19.06;74.32;102208.03;20878555;28;20101;-79
2022/08/07 11:30:30;;;;;;;2.55;2.35;;;;;;;19.15;74.59;102204.66;20884845;28;20549;-80
2022/08/07 11:40:48;;;;;;;2.72;2.00;;;;;;;19.25;76.03;102203.00;20890558;28;20110;-76
2022/08/07 11:51:15;;;;;;;2.60;1.70;;;;;;;19.32;76.33;102187.22;20887352;28;20064;-76
2022/08/07 12:02:09;;;;;;;1.88;1.60;;;;;;;19.36;76.03;102185.13;20903449;28;20057;-76
2022/08/07 12:12:40;;;;;;;2.05;1.35;;;;;;;19.26;76.09;102158.81;20900829;28;20457;-76
2022/08/07 12:23:06;;;;;;;1.80;1.55;;;;;;;19.42;75.95;102188.22;20911987;28;20049;-76
2022/08/07 12:33:14;;;;;;;1.40;1.27;;;;;;;19.45;75.85;102181.75;20898384;28;20052;-76
2022/08/07 12:43:33;;;;;;;1.40;1.30;;;;;;;19.48;75.67;102186.03;20911880;28;20050;-76
2022/08/07 12:54:39;;;;;;;1.65;1.10;;;;;;;19.09;75.71;102100.69;20897475;28;20059;-76
2022/08/07 13:05:06;;;;;;;1.33;1.20;;;;;;;19.49;75.53;102169.75;20876338;28;20048;-77
2022/08/07 13:16:05;;;;;;;12.15;1.70;;;;;;;19.50;75.60;102152.56;20892148;28;20137;-76
2022/08/07 13:26:21;;;;;;;2.10;1.33;;;;;;;19.17;75.36;102092.03;20893393;28;20040;-76
2022/08/07 13:36:38;;;;;;;2.90;1.55;;;;;;;19.51;74.81;102140.78;20877416;28;20061;-77
2022/08/07 13:46:45;;;;;;;2.93;1.30;;;;;;;19.51;74.64;102129.97;20870353;28;20052;-77
2022/08/07 13:56:54;;;;;;;1.42;1.15;;;;;;;19.51;74.71;102137.19;20871489;28;20057;-77
2022/08/07 14:07:04;;;;;;;2.45;1.20;;;;;;;19.50;74.81;102125.53;20891050;28;20647;-76
2022/08/07 14:17:11;;;;;;;1.88;1.13;;;;;;;19.48;74.60;102116.69;20886491;28;20053;-76
2022/08/07 14:27:36;;;;;;;2.25;1.25;;;;;;;19.39;74.65;102090.38;20887443;28;20045;-76
2022/08/07 14:37:58;;;;;;;2.70;1.20;;;;;;;19.49;74.70;102121.13;20885978;28;20055;-78
2022/08/07 14:48:08;;;;;;;2.10;1.20;;;;;;;19.46;74.57;102107.84;20878511;28;20805;-77
2022/08/07 14:58:24;;;;;;;3.30;1.30;;;;;;;19.24;74.83;102063.56;20868660;28;20178;-77
2022/08/07 15:08:33;;;;;;;1.88;1.50;;;;;;;18.90;74.56;102009.41;20866967;28;20382;-76
2022/08/07 15:18:50;;;;;;;1.30;1.20;;;;;;;19.47;74.70;102112.28;20878468;28;20052;-77
2022/08/07 15:28:56;;;;;;;2.60;1.45;;;;;;;19.46;74.65;102105.16;20880344;28;20052;-76
2022/08/07 15:39:17;;;;;;;2.42;1.45;;;;;;;19.45;74.68;102099.84;20899564;28;20059;-76
2022/08/07 15:49:28;;;;;;;1.85;1.13;;;;;;;19.01;74.74;102021.28;20882510;28;20102;-76
2022/08/07 15:59:50;;;;;;;2.13;1.17;;;;;;;19.17;74.75;102048.84;20885400;28;20500;-79
2022/08/07 16:10:15;;;;;;;2.65;1.20;;;;;;;19.36;75.30;102083.38;20878359;28;20056;-76
2022/08/07 16:20:36;;;;;;;1.52;1.15;;;;;;;19.43;75.19;102075.66;20892633;28;20064;-77
2022/08/07 16:30:54;;;;;;;2.28;1.40;;;;;;;19.40;75.50;102065.97;20893958;28;20476;-76
2022/08/07 16:41:22;;;;;;;2.28;1.27;;;;;;;19.47;75.95;102074.47;20905637;28;20047;-76
2022/08/07 16:51:43;;;;;;;3.10;1.50;;;;;;;19.51;76.61;102072.38;20909487;28;20123;-78
2022/08/07 17:02:36;;;;;;;8.60;2.20;;;;;;;19.56;78.45;102065.66;20914107;28;20068;-77
2022/08/07 17:13:02;;;;;;;12.63;2.60;;;;;;;19.53;82.93;102044.28;20903275;28;20044;-78
2022/08/07 17:23:13;;;;;;;8.63;2.67;;;;;;;19.63;81.44;102070.56;20911876;28;20072;-79
2022/08/07 17:33:18;;;;;;;7.10;2.60;;;;;;;19.39;82.87;102037.25;20918986;28;20519;-80
2022/08/07 17:43:47;;;;;;;9.07;2.17;;;;;;;19.49;83.09;102066.22;20890295;28;20056;-77
2022/08/07 17:54:19;;;;;;;8.43;2.38;;;;;;;19.47;82.90;102070.88;20843482;28;20056;-79
2022/08/07 18:05:07;;;;;;;5.55;2.08;;;;;;;19.37;82.03;102054.53;20880166;28;20053;-81
2022/08/07 18:15:25;;;;;;;3.97;1.70;;;;;;;19.34;81.59;102060.16;20883956;28;20059;-81
2022/08/07 18:25:34;;;;;;;3.55;2.10;;;;;;;19.38;81.20;102078.72;20915138;28;20053;-79
2022/08/07 18:36:02;;;;;;;2.03;1.40;;;;;;;19.38;80.74;102091.34;21010512;28;20052;-79
2022/08/07 18:46:21;;;;;;;4.57;2.00;;;;;;;19.36;80.48;102104.09;21042182;28;20059;-79
2022/08/07 18:56:45;;;;;;;3.47;1.70;;;;;;;19.35;80.23;102110.50;21044086;28;20051;-79
2022/08/07 19:07:29;;;;;;;3.95;2.38;;;;;;;19.26;80.05;102110.22;21044568;28;20047;-79
2022/08/07 19:17:47;;;;;;;2.22;1.88;;;;;;;19.32;80.06;102132.31;21043733;28;20555;-79
2022/08/07 19:28:11;;;;;;;2.83;1.55;;;;;;;19.31;80.35;102144.97;21015752;28;20135;-79
2022/08/07 19:38:34;;;;;;;3.88;1.80;;;;;;;19.31;80.35;102166.59;21026714;28;20083;-79
2022/08/07 19:49:20;;;;;;;3.92;2.25;;;;;;;19.30;80.53;102174.78;21041409;28;20120;-79
2022/08/07 19:59:42;;;;;;;3.58;1.92;;;;;;;19.29;80.57;102187.44;21047463;28;20481;-79
2022/08/07 20:09:46;;;;;;;3.03;1.80;;;;;;;19.27;80.84;102184.84;21056250;28;20089;-78
2022/08/07 20:20:09;;;;;;;3.72;2.28;;;;;;;19.26;81.01;102188.50;21056106;28;20062;-79
2022/08/07 20:30:11;;;;;;;3.10;2.00;;;;;;;19.25;81.27;102194.88;21045838;28;20040;-79
2022/08/07 20:40:22;;;;;;;3.22;2.03;;;;;;;19.26;81.57;102191.22;21053782;28;20048;-79
2022/08/07 20:50:35;;;;;;;3.72;2.05;;;;;;;19.17;81.47;102164.03;21052956;28;20569;-79
2022/08/07 21:00:45;;;;;;;2.65;2.03;;;;;;;19.24;81.65;102185.06;21035289;28;20397;-79
2022/08/07 21:10:48;;;;;;;2.20;1.80;;;;;;;19.23;82.00;102187.91;21051496;28;20052;-79
2022/08/07 21:20:53;;;;;;;2.53;1.90;;;;;;;18.92;82.05;102139.69;21050571;28;20044;-79
2022/08/07 21:31:25;;;;;;;2.30;1.92;;;;;;;19.23;82.29;102194.13;21032298;28;20144;-79
2022/08/07 21:42:06;;;;;;;3.97;2.10;;;;;;;19.21;82.46;102188.00;21049955;28;20459;-79
2022/08/07 21:52:47;;;;;;;3.72;2.22;;;;;;;19.19;82.37;102192.66;21049729;28;20056;-79
2022/08/07 22:03:18;;;;;;;2.97;1.90;;;;;;;19.15;82.75;102188.44;21046963;28;20044;-79
2022/08/07 22:13:33;;;;;;;2.95;1.60;;;;;;;19.18;82.69;102204.41;21047144;28;20113;-79
2022/08/07 22:24:10;;;;;;;2.00;1.80;;;;;;;19.18;82.68;102196.31;21029263;28;20044;-78
2022/08/07 22:34:22;;;;;;;2.13;1.80;;;;;;;19.19;82.86;102200.75;21036617;28;20085;-79
2022/08/07 22:44:32;;;;;;;2.33;1.52;;;;;;;19.17;82.74;102208.09;21045864;28;20134;-79
2022/08/07 22:55:05;;;;;;;2.05;1.85;;;;;;;19.16;82.84;102219.88;21026891;28;20540;-79
2022/08/07 23:06:01;;;;;;;2.22;1.77;;;;;;;19.16;82.80;102229.78;21044299;28;20040;-79
2022/08/07 23:16:34;;;;;;;2.00;1.80;;;;;;;19.16;83.04;102221.69;21044037;28;20131;-79
2022/08/07 23:27:01;;;;;;;2.70;2.00;;;;;;;19.14;82.94;102211.03;21028726;28;20408;-79
2022/08/07 23:37:22;;;;;;;2.67;1.60;;;;;;;19.14;83.05;102219.13;21051781;28;20067;-79
2022/08/07 23:47:39;;;;;;;2.35;1.50;;;;;;;19.12;82.87;102218.38;21059886;28;20051;-79
2022/08/07 23:57:53;;;;;;;2.22;1.60;;;;;;;19.05;82.93;102209.84;21059365;28;20043;-79
